createdAt,value
2022-08-31T00:00:50.494Z,16.56
2022-08-31T00:03:53.904Z,15.80
2022-08-31T00:06:39.420Z,16.84
2022-08-31T00:09:24.827Z,16.91
2022-08-31T00:12:10.149Z,15.77
2022-08-31T00:14:56.034Z,16.66
2022-08-31T00:17:42.247Z,15.81
2022-08-31T00:20:33.649Z,16.73
2022-08-31T00:23:20.541Z,16.40
2022-08-31T00:26:06.336Z,15.45
2022-08-31T00:28:52.157Z,16.46
2022-08-31T00:31:37.744Z,15.70
2022-08-31T00:34:23.026Z,16.62
2022-08-31T00:37:08.379Z,15.62
2022-08-31T00:39:54.893Z,15.33
2022-08-31T00:42:41.133Z,15.43
2022-08-31T00:45:27.309Z,16.55
2022-08-31T00:48:13.050Z,15.39
2022-08-31T00:50:58.992Z,15.23
2022-08-31T00:53:45.237Z,16.25
2022-08-31T00:56:31.466Z,16.11
2022-08-31T00:59:19.407Z,15.72
2022-08-31T01:02:06.555Z,14.98
2022-08-31T01:04:52.225Z,15.83
2022-08-31T01:07:39.096Z,15.78
2022-08-31T01:10:28.900Z,15.88
2022-08-31T01:13:16.124Z,15.63
2022-08-31T01:16:06.545Z,16.08
2022-08-31T01:18:54.015Z,16.12
2022-08-31T01:22:08.069Z,16.18
2022-08-31T01:24:55.211Z,15.23
2022-08-31T01:27:40.935Z,16.19
2022-08-31T01:30:26.744Z,14.84
2022-08-31T01:33:13.344Z,15.63
2022-08-31T01:35:59.583Z,14.93
2022-08-31T01:38:46.201Z,14.87
2022-08-31T01:41:43.835Z,15.91
2022-08-31T01:44:29.667Z,15.17
2022-08-31T01:47:16.103Z,15.62
2022-08-31T01:50:02.023Z,16.20
2022-08-31T01:52:48.149Z,16.23
2022-08-31T01:55:34.244Z,16.14
2022-08-31T01:58:20.759Z,16.19
2022-08-31T02:01:33.650Z,15.61
2022-08-31T02:04:24.286Z,15.29
2022-08-31T02:07:13.503Z,15.07
2022-08-31T02:09:59.087Z,16.37
2022-08-31T02:12:44.927Z,16.41
2022-08-31T02:15:31.239Z,16.10
2022-08-31T02:18:17.127Z,16.29
2022-08-31T02:21:05.238Z,16.25
2022-08-31T02:23:50.475Z,15.10
2022-08-31T02:26:35.916Z,16.13
2022-08-31T02:29:22.962Z,15.86
2022-08-31T02:32:08.406Z,15.44
2022-08-31T02:35:05.475Z,15.75
2022-08-31T02:37:51.758Z,15.50
2022-08-31T02:40:39.209Z,15.99
2022-08-31T02:43:27.175Z,14.59
2022-08-31T02:46:13.085Z,15.95
2022-08-31T02:49:03.834Z,14.65
2022-08-31T02:51:49.444Z,15.88
2022-08-31T02:54:35.425Z,15.79
2022-08-31T02:57:20.804Z,15.33
2022-08-31T03:00:07.878Z,15.02
2022-08-31T03:02:53.590Z,14.28
2022-08-31T03:05:39.237Z,15.46
2022-08-31T03:08:25.990Z,14.49
2022-08-31T03:11:13.711Z,15.42
2022-08-31T03:13:59.927Z,14.23
2022-08-31T03:16:45.983Z,15.24
2022-08-31T03:19:32.270Z,15.27
2022-08-31T03:22:17.691Z,14.41
2022-08-31T03:25:07.213Z,14.42
2022-08-31T03:27:53.119Z,15.69
2022-08-31T03:30:40.195Z,15.65
2022-08-31T03:33:27.085Z,15.84
2022-08-31T03:36:15.490Z,15.98
2022-08-31T03:39:01.178Z,14.81
2022-08-31T03:41:47.001Z,15.58
2022-08-31T03:44:33.975Z,16.03
2022-08-31T03:47:20.043Z,16.08
2022-08-31T03:50:08.250Z,15.91
2022-08-31T03:53:13.817Z,15.87
2022-08-31T03:56:03.967Z,14.86
2022-08-31T03:58:52.240Z,16.11
2022-08-31T04:01:58.059Z,16.14
2022-08-31T04:05:02.117Z,16.22
2022-08-31T04:08:06.300Z,15.79
2022-08-31T04:11:13.688Z,15.80
2022-08-31T04:14:05.417Z,15.58
2022-08-31T04:16:54.326Z,15.85
2022-08-31T04:20:00.348Z,15.08
2022-08-31T04:22:55.317Z,16.28
2022-08-31T04:25:50.921Z,16.38
2022-08-31T04:28:36.197Z,15.45
2022-08-31T04:31:24.534Z,15.43
2022-08-31T04:34:10.427Z,16.03
2022-08-31T04:36:55.717Z,16.52
2022-08-31T04:39:50.891Z,16.37
2022-08-31T04:42:39.037Z,16.29
2022-08-31T04:45:24.880Z,16.42
2022-08-31T04:48:11.391Z,16.56
2022-08-31T04:51:01.575Z,16.66
2022-08-31T04:53:48.129Z,16.77
2022-08-31T04:56:37.769Z,15.97
2022-08-31T04:59:26.194Z,16.90
2022-08-31T05:02:34.011Z,16.96
2022-08-31T05:05:28.586Z,16.66
2022-08-31T05:08:13.885Z,17.08
2022-08-31T05:10:59.424Z,16.85
2022-08-31T05:13:46.033Z,16.31
2022-08-31T05:16:33.657Z,16.58
2022-08-31T05:19:20.268Z,17.61
2022-08-31T05:22:06.484Z,17.99
2022-08-31T05:24:53.870Z,18.33
2022-08-31T05:27:41.229Z,18.41
2022-08-31T05:30:27.037Z,18.87
2022-08-31T05:33:23.223Z,19.18
2022-08-31T05:36:09.161Z,19.42
2022-08-31T05:39:01.068Z,19.11
2022-08-31T05:41:48.214Z,19.80
2022-08-31T05:44:36.450Z,20.10
2022-08-31T05:47:23.612Z,20.55
2022-08-31T05:50:09.677Z,19.33
2022-08-31T05:52:58.366Z,19.79
2022-08-31T05:55:44.996Z,20.17
2022-08-31T05:58:31.255Z,20.01
2022-08-31T06:01:33.190Z,20.04
2022-08-31T06:04:26.461Z,19.86
2022-08-31T06:07:11.957Z,18.59
2022-08-31T06:10:03.619Z,18.58
2022-08-31T06:12:50.041Z,18.95
2022-08-31T06:15:36.715Z,17.98
2022-08-31T06:18:29.026Z,18.97
2022-08-31T06:21:16.430Z,18.91
2022-08-31T06:24:04.007Z,18.79
2022-08-31T06:26:58.532Z,17.87
2022-08-31T06:29:50.911Z,18.12
2022-08-31T06:32:36.693Z,18.61
2022-08-31T06:35:23.607Z,18.53
2022-08-31T06:38:32.019Z,17.97
2022-08-31T06:41:41.558Z,18.39
2022-08-31T06:44:51.559Z,18.22
2022-08-31T06:47:38.996Z,17.46
2022-08-31T06:50:24.921Z,17.82
2022-08-31T06:53:11.845Z,18.15
2022-08-31T06:56:21.335Z,18.25
2022-08-31T06:59:30.150Z,17.18
2022-08-31T07:02:57.434Z,18.40
2022-08-31T07:05:44.447Z,18.48
2022-08-31T07:08:30.405Z,18.09
2022-08-31T07:11:23.049Z,18.38
2022-08-31T07:14:12.420Z,18.64
2022-08-31T07:17:03.049Z,17.95
2022-08-31T07:19:50.051Z,18.93
2022-08-31T07:22:37.061Z,18.82
2022-08-31T07:25:45.720Z,19.11
2022-08-31T07:28:31.692Z,19.14
2022-08-31T07:31:18.748Z,18.99
2022-08-31T07:34:08.221Z,19.27
2022-08-31T07:37:22.686Z,19.17
2022-08-31T07:40:28.164Z,19.25
2022-08-31T07:43:14.977Z,18.30
2022-08-31T07:46:00.649Z,19.45
2022-08-31T07:48:47.244Z,19.14
2022-08-31T07:51:53.414Z,19.26
2022-08-31T07:55:08.701Z,19.70
2022-08-31T07:58:15.527Z,19.71
2022-08-31T08:01:04.297Z,19.85
2022-08-31T08:03:53.610Z,20.01
2022-08-31T08:07:00.393Z,19.01
2022-08-31T08:10:14.090Z,19.35
2022-08-31T08:13:20.796Z,19.85
2022-08-31T08:16:23.635Z,19.98
2022-08-31T08:19:25.809Z,20.58
2022-08-31T08:22:11.749Z,20.51
2022-08-31T08:25:28.513Z,20.92
2022-08-31T08:28:40.839Z,20.93
2022-08-31T08:31:29.226Z,20.16
2022-08-31T08:34:15.094Z,20.79
2022-08-31T08:37:01.273Z,20.58
2022-08-31T08:39:46.965Z,21.34
2022-08-31T08:42:39.028Z,21.39
2022-08-31T08:45:25.556Z,21.26
2022-08-31T08:48:14.059Z,21.17
2022-08-31T08:51:04.499Z,21.00
2022-08-31T08:54:07.711Z,21.01
2022-08-31T08:57:01.654Z,20.87
2022-08-31T08:59:51.275Z,20.33
2022-08-31T09:02:43.638Z,21.35
2022-08-31T09:05:53.413Z,20.47
2022-08-31T09:09:24.528Z,21.54
2022-08-31T09:12:27.607Z,21.73
2022-08-31T09:15:36.739Z,20.74
2022-08-31T09:18:42.303Z,21.79
2022-08-31T09:21:34.505Z,21.64
2022-08-31T09:24:27.562Z,21.33
2022-08-31T09:28:01.644Z,21.40
2022-08-31T09:30:52.498Z,21.35
2022-08-31T09:33:51.092Z,21.32
2022-08-31T09:36:41.171Z,21.31
2022-08-31T09:39:33.018Z,21.24
2022-08-31T09:42:34.004Z,21.29
2022-08-31T09:45:30.103Z,20.83
2022-08-31T09:48:44.187Z,21.38
2022-08-31T09:51:36.396Z,21.03
2022-08-31T09:54:47.064Z,21.57
2022-08-31T09:57:55.762Z,21.58
2022-08-31T10:00:45.088Z,21.52
2022-08-31T10:03:30.708Z,21.44
2022-08-31T10:06:45.958Z,20.59
2022-08-31T10:09:45.109Z,20.58
2022-08-31T10:13:04.316Z,21.79
2022-08-31T10:16:27.416Z,21.79
2022-08-31T10:19:20.352Z,21.66
2022-08-31T10:22:25.465Z,21.02
2022-08-31T10:25:21.743Z,21.24
2022-08-31T10:28:18.726Z,21.40
2022-08-31T10:31:30.104Z,21.40
2022-08-31T10:34:58.243Z,21.46
2022-08-31T10:37:55.499Z,20.96
2022-08-31T10:40:51.240Z,21.49
2022-08-31T10:44:23.872Z,21.64
2022-08-31T10:47:14.368Z,21.84
2022-08-31T10:50:26.197Z,21.96
2022-08-31T10:53:35.832Z,22.00
2022-08-31T10:56:59.179Z,21.92
2022-08-31T10:59:56.386Z,21.86
2022-08-31T11:03:12.329Z,21.72
2022-08-31T11:06:23.473Z,21.54
2022-08-31T11:09:24.473Z,21.48
2022-08-31T11:12:18.410Z,20.24
2022-08-31T11:15:28.925Z,21.53
2022-08-31T11:18:36.160Z,21.65
2022-08-31T11:21:35.512Z,21.72
2022-08-31T11:24:40.395Z,20.77
2022-08-31T11:27:59.361Z,20.87
2022-08-31T11:30:51.381Z,21.82
2022-08-31T11:33:37.301Z,21.64
2022-08-31T11:36:50.111Z,22.14
2022-08-31T11:39:43.096Z,21.36
2022-08-31T11:42:28.434Z,22.16
2022-08-31T11:45:28.851Z,22.14
2022-08-31T11:48:54.502Z,22.14
2022-08-31T11:51:44.945Z,22.10
2022-08-31T11:54:38.757Z,21.06
2022-08-31T11:57:35.625Z,21.98
2022-08-31T12:00:23.268Z,21.20
2022-08-31T12:03:11.069Z,21.82
2022-08-31T12:05:58.134Z,21.93
2022-08-31T12:08:52.300Z,21.95
2022-08-31T12:11:48.510Z,22.00
2022-08-31T12:14:50.182Z,22.04
2022-08-31T12:17:57.436Z,22.00
2022-08-31T12:21:27.746Z,21.93
2022-08-31T12:24:37.628Z,21.90
2022-08-31T12:27:59.726Z,21.75
2022-08-31T12:30:52.753Z,22.06
2022-08-31T12:33:54.455Z,22.16
2022-08-31T12:36:39.838Z,22.20
2022-08-31T12:39:28.014Z,22.05
2022-08-31T12:42:14.142Z,22.16
2022-08-31T12:44:59.913Z,21.01
2022-08-31T12:48:02.410Z,21.20
2022-08-31T12:51:21.231Z,22.06
2022-08-31T12:54:35.312Z,21.83
2022-08-31T12:57:27.306Z,22.08
2022-08-31T13:00:21.927Z,22.01
2022-08-31T13:03:29.219Z,21.21
2022-08-31T13:06:24.809Z,21.66
2022-08-31T13:09:33.302Z,21.95
2022-08-31T13:12:24.786Z,21.22
2022-08-31T13:15:25.622Z,20.90
2022-08-31T13:18:13.309Z,21.93
2022-08-31T13:21:11.030Z,21.85
2022-08-31T13:24:08.741Z,21.95
2022-08-31T13:27:28.193Z,22.13
2022-08-31T13:30:20.224Z,22.15
2022-08-31T13:33:24.874Z,22.04
2022-08-31T13:36:16.114Z,20.92
2022-08-31T13:39:16.371Z,22.19
2022-08-31T13:42:11.383Z,22.21
2022-08-31T13:45:00.950Z,21.26
2022-08-31T13:47:57.246Z,22.11
2022-08-31T13:50:52.687Z,21.93
2022-08-31T13:53:53.816Z,22.16
2022-08-31T13:56:55.693Z,22.05
2022-08-31T13:59:41.237Z,22.26
2022-08-31T14:02:37.368Z,22.10
2022-08-31T14:05:35.757Z,22.24
2022-08-31T14:08:25.146Z,21.29
2022-08-31T14:11:14.211Z,22.12
2022-08-31T14:14:07.432Z,21.06
2022-08-31T14:16:57.612Z,22.07
2022-08-31T14:19:45.818Z,22.07
2022-08-31T14:22:35.403Z,21.87
2022-08-31T14:25:22.160Z,21.09
2022-08-31T14:28:09.071Z,22.01
2022-08-31T14:30:55.777Z,20.91
2022-08-31T14:33:50.163Z,21.45
2022-08-31T14:36:50.335Z,20.66
2022-08-31T14:39:37.431Z,20.95
2022-08-31T14:42:32.984Z,21.17
2022-08-31T14:45:18.979Z,20.90
2022-08-31T14:48:08.958Z,21.62
2022-08-31T14:50:55.662Z,21.37
2022-08-31T14:53:42.759Z,21.36
2022-08-31T14:56:32.996Z,21.66
2022-08-31T14:59:21.577Z,21.72
2022-08-31T15:02:12.960Z,20.84
2022-08-31T15:05:01.231Z,21.66
2022-08-31T15:07:49.165Z,21.64
2022-08-31T15:10:34.568Z,21.41
2022-08-31T15:13:20.031Z,21.60
2022-08-31T15:16:13.283Z,21.38
2022-08-31T15:18:59.336Z,20.44
2022-08-31T15:22:02.851Z,21.29
2022-08-31T15:24:50.040Z,21.42
2022-08-31T15:27:36.345Z,21.32
2022-08-31T15:30:23.118Z,20.71
2022-08-31T15:33:10.072Z,21.02
2022-08-31T15:36:07.443Z,20.12
2022-08-31T15:38:56.202Z,20.22
2022-08-31T15:41:43.057Z,21.16
2022-08-31T15:44:29.012Z,20.07
2022-08-31T15:47:33.235Z,20.23
2022-08-31T15:50:20.893Z,21.04
2022-08-31T15:53:09.857Z,20.05
2022-08-31T15:56:05.404Z,19.85
2022-08-31T15:58:56.833Z,20.22
2022-08-31T16:01:42.530Z,19.95
2022-08-31T16:04:28.934Z,20.16
2022-08-31T16:07:14.807Z,20.10
2022-08-31T16:10:02.680Z,21.02
2022-08-31T16:12:50.460Z,21.04
2022-08-31T16:15:37.628Z,21.06
2022-08-31T16:18:23.075Z,20.99
2022-08-31T16:21:08.499Z,20.77
2022-08-31T16:24:00.662Z,20.86
2022-08-31T16:26:49.588Z,20.01
2022-08-31T16:29:36.149Z,20.98
2022-08-31T16:32:21.616Z,20.98
2022-08-31T16:35:07.966Z,20.05
2022-08-31T16:37:53.396Z,20.02
2022-08-31T16:40:42.641Z,20.26
2022-08-31T16:43:28.312Z,19.86
2022-08-31T16:46:39.610Z,20.65
2022-08-31T16:49:36.410Z,20.57
2022-08-31T16:52:26.753Z,20.52
2022-08-31T16:55:16.139Z,20.44
2022-08-31T16:58:02.085Z,19.97
2022-08-31T17:00:48.333Z,20.07
2022-08-31T17:03:34.005Z,20.24
2022-08-31T17:06:19.874Z,20.19
2022-08-31T17:09:11.913Z,20.17
2022-08-31T17:12:00.166Z,19.10
2022-08-31T17:14:50.515Z,20.14
2022-08-31T17:17:36.077Z,19.78
2022-08-31T17:20:21.421Z,19.38
2022-08-31T17:23:06.862Z,19.25
2022-08-31T17:25:52.727Z,19.73
2022-08-31T17:28:38.503Z,19.78
2022-08-31T17:31:25.145Z,19.50
2022-08-31T17:34:17.517Z,19.05
2022-08-31T17:37:13.238Z,18.76
2022-08-31T17:39:59.012Z,18.65
2022-08-31T17:42:44.532Z,19.75
2022-08-31T17:45:29.975Z,19.34
2022-08-31T17:48:15.971Z,18.64
2022-08-31T17:51:11.956Z,19.69
2022-08-31T17:54:04.406Z,18.95
2022-08-31T17:56:56.157Z,19.66
2022-08-31T17:59:50.939Z,19.36
2022-08-31T18:02:37.800Z,19.31
2022-08-31T18:05:24.011Z,18.77
2022-08-31T18:08:09.358Z,19.21
2022-08-31T18:10:55.043Z,18.96
2022-08-31T18:13:41.731Z,19.09
2022-08-31T18:16:28.002Z,19.19
2022-08-31T18:19:14.929Z,19.11
2022-08-31T18:22:04.140Z,18.11
2022-08-31T18:24:49.705Z,18.68
2022-08-31T18:27:36.575Z,18.86
2022-08-31T18:30:22.946Z,18.79
2022-08-31T18:33:14.818Z,18.72
2022-08-31T18:36:00.324Z,18.68
2022-08-31T18:38:45.991Z,18.59
2022-08-31T18:41:49.935Z,18.51
2022-08-31T18:44:54.952Z,17.55
2022-08-31T18:47:40.165Z,18.39
2022-08-31T18:50:32.293Z,18.33
2022-08-31T18:53:29.404Z,18.21
2022-08-31T18:56:16.985Z,18.21
2022-08-31T18:59:02.684Z,18.08
2022-08-31T19:01:48.235Z,17.83
2022-08-31T19:04:35.864Z,17.75
2022-08-31T19:07:21.754Z,17.85
2022-08-31T19:10:12.857Z,17.50
2022-08-31T19:12:58.931Z,17.53
2022-08-31T19:15:45.684Z,16.80
2022-08-31T19:18:31.293Z,16.92
2022-08-31T19:21:23.950Z,16.96
2022-08-31T19:24:13.136Z,15.75
2022-08-31T19:27:00.123Z,15.74
2022-08-31T19:29:46.016Z,16.85
2022-08-31T19:32:32.356Z,16.82
2022-08-31T19:35:18.297Z,16.59
2022-08-31T19:38:04.926Z,15.51
2022-08-31T19:40:50.524Z,16.65
2022-08-31T19:43:47.317Z,15.95
2022-08-31T19:46:52.110Z,16.60
2022-08-31T19:49:38.377Z,16.49
2022-08-31T19:52:24.750Z,16.66
2022-08-31T19:55:11.722Z,15.26
2022-08-31T19:57:57.508Z,15.24
2022-08-31T20:00:43.559Z,15.56
2022-08-31T20:03:31.197Z,15.71
2022-08-31T20:06:20.400Z,15.65
2022-08-31T20:09:08.351Z,15.60
2022-08-31T20:11:57.033Z,14.42
2022-08-31T20:14:44.609Z,15.57
2022-08-31T20:17:30.166Z,14.40
2022-08-31T20:20:16.979Z,15.54
2022-08-31T20:23:03.473Z,15.24
2022-08-31T20:25:53.565Z,15.47
2022-08-31T20:28:40.480Z,15.29
2022-08-31T20:31:26.753Z,15.13
2022-08-31T20:34:19.362Z,14.08
2022-08-31T20:37:05.662Z,15.47
2022-08-31T20:39:51.971Z,15.25
2022-08-31T20:42:37.373Z,14.32
2022-08-31T20:45:23.199Z,15.08
2022-08-31T20:48:27.813Z,14.21
2022-08-31T20:51:18.218Z,15.31
2022-08-31T20:54:04.731Z,14.40
2022-08-31T20:56:55.038Z,15.19
2022-08-31T20:59:41.446Z,15.13
2022-08-31T21:02:26.954Z,15.04
2022-08-31T21:05:37.263Z,14.97
2022-08-31T21:08:20.915Z,14.86
2022-08-31T21:11:20.281Z,13.92
2022-08-31T21:14:06.768Z,14.81
2022-08-31T21:16:53.934Z,14.73
2022-08-31T21:19:41.724Z,14.38
2022-08-31T21:22:27.709Z,14.52
2022-08-31T21:25:13.867Z,14.78
2022-08-31T21:28:00.004Z,14.30
2022-08-31T21:30:49.264Z,14.66
2022-08-31T21:33:34.934Z,13.36
2022-08-31T21:36:23.674Z,14.52
2022-08-31T21:39:12.047Z,13.33
2022-08-31T21:41:57.418Z,14.20
2022-08-31T21:44:43.251Z,13.51
2022-08-31T21:47:28.668Z,13.53
2022-08-31T21:50:13.932Z,13.34
2022-08-31T21:53:00.507Z,13.63
2022-08-31T21:55:46.216Z,14.58
2022-08-31T21:58:31.569Z,13.69
2022-08-31T22:01:20.563Z,13.39
2022-08-31T22:04:07.018Z,14.37
2022-08-31T22:06:53.820Z,14.75
2022-08-31T22:09:39.921Z,13.84
2022-08-31T22:12:26.260Z,14.71
2022-08-31T22:15:16.663Z,14.57
2022-08-31T22:18:31.470Z,13.87
2022-08-31T22:21:16.097Z,13.73
2022-08-31T22:24:08.054Z,14.91
2022-08-31T22:26:53.989Z,14.96
2022-08-31T22:29:40.795Z,15.00
2022-08-31T22:32:26.266Z,13.00
2022-08-31T22:35:11.679Z,14.94
2022-08-31T22:37:57.072Z,14.86
2022-08-31T22:40:43.162Z,13.68
2022-08-31T22:43:28.825Z,14.74
2022-08-31T22:46:20.329Z,14.73
2022-08-31T22:49:07.758Z,14.82
2022-08-31T22:51:54.199Z,14.91
2022-08-31T22:54:39.834Z,15.00
2022-08-31T22:57:25.327Z,13.94
2022-08-31T23:00:14.587Z,13.98
2022-08-31T23:02:59.894Z,14.21
2022-08-31T23:05:45.376Z,14.33
2022-08-31T23:08:30.781Z,15.03
2022-08-31T23:11:19.022Z,15.36
2022-08-31T23:14:09.013Z,14.08
2022-08-31T23:17:00.769Z,14.61
2022-08-31T23:19:46.807Z,15.33
2022-08-31T23:22:32.723Z,14.93
2022-08-31T23:25:22.397Z,14.23
2022-08-31T23:28:08.669Z,14.48
2022-08-31T23:30:54.235Z,14.80
2022-08-31T23:33:39.772Z,14.29
2022-08-31T23:36:27.342Z,14.48
2022-08-31T23:39:14.702Z,14.03
2022-08-31T23:42:00.167Z,14.08
2022-08-31T23:44:48.571Z,12.74
2022-08-31T23:47:34.873Z,14.02
2022-08-31T23:50:20.530Z,14.02
2022-08-31T23:53:14.487Z,14.00
2022-08-31T23:56:00.193Z,12.87
2022-08-31T23:58:46.498Z,13.97
